Terminal Aerodrome Forecast
Issued by NWS

Home | Current Version | Previous Version | Text Only | Print | Product List | Glossary Off
Versions: 1 2 3 4 5 6 7 8 9 10 11 12 13 14 15 16 17 18

000
FTUS43 KICT 301942 AAA
TAFSLN
TAF AMD
KSLN 301942Z 3020/0118 28015G21KT P6SM SCT035 BKN050
     FM010100 30009KT P6SM BKN050
     FM010600 30011KT P6SM OVC015
     FM011600 32015G23KT P6SM BKN025=

USA.gov is the U.S. government's official web portal to all federal, state and local government web resources and services.